sensor_id;sensor_type;location;lat;lon;timestamp;pressure;altitude;pressure_sealevel;temperature;humidity
12349;BME280;5974;42.710;27.258;2023-04-24T00:00:14;100191.69;;;4.75;100.00
12349;BME280;5974;42.710;27.258;2023-04-24T00:02:42;100185.44;;;5.36;100.00
12349;BME280;5974;42.710;27.258;2023-04-24T00:05:12;100155.47;;;5.21;100.00
12349;BME280;5974;42.710;27.258;2023-04-24T00:07:39;100173.16;;;5.47;100.00
12349;BME280;5974;42.710;27.258;2023-04-24T00:10:07;100170.56;;;5.47;100.00
12349;BME280;5974;42.710;27.258;2023-04-24T00:12:34;100175.34;;;5.67;100.00
12349;BME280;5974;42.710;27.258;2023-04-24T00:15:02;100165.25;;;5.06;100.00
12349;BME280;5974;42.710;27.258;2023-04-24T00:17:30;100166.47;;;5.34;100.00
12349;BME280;5974;42.710;27.258;2023-04-24T00:19:57;100170.06;;;4.78;100.00
12349;BME280;5974;42.710;27.258;2023-04-24T00:22:24;100168.44;;;4.13;100.00
12349;BME280;5974;42.710;27.258;2023-04-24T00:24:52;100166.69;;;4.71;100.00
12349;BME280;5974;42.710;27.258;2023-04-24T00:27:18;100164.81;;;4.82;100.00
12349;BME280;5974;42.710;27.258;2023-04-24T00:29:45;100165.63;;;4.84;100.00
12349;BME280;5974;42.710;27.258;2023-04-24T00:32:12;100169.88;;;4.88;100.00
12349;BME280;5974;42.710;27.258;2023-04-24T00:34:41;100161.47;;;4.74;100.00
12349;BME280;5974;42.710;27.258;2023-04-24T00:37:08;100165.13;;;4.03;100.00
12349;BME280;5974;42.710;27.258;2023-04-24T00:39:35;100164.75;;;4.30;100.00
12349;BME280;5974;42.710;27.258;2023-04-24T00:42:02;100166.25;;;4.45;100.00
12349;BME280;5974;42.710;27.258;2023-04-24T00:44:31;100158.41;;;4.50;100.00
12349;BME280;5974;42.710;27.258;2023-04-24T00:46:59;100155.97;;;4.42;100.00
12349;BME280;5974;42.710;27.258;2023-04-24T00:49:26;100155.19;;;4.35;100.00
12349;BME280;5974;42.710;27.258;2023-04-24T00:51:54;100157.69;;;4.42;100.00
12349;BME280;5974;42.710;27.258;2023-04-24T00:54:22;100165.31;;;4.49;100.00
12349;BME280;5974;42.710;27.258;2023-04-24T00:56:49;100159.22;;;4.53;100.00
12349;BME280;5974;42.710;27.258;2023-04-24T00:59:17;100168.91;;;4.42;100.00
12349;BME280;5974;42.710;27.258;2023-04-24T01:01:44;100165.31;;;4.52;100.00
12349;BME280;5974;42.710;27.258;2023-04-24T01:04:12;100164.34;;;4.56;100.00
12349;BME280;5974;42.710;27.258;2023-04-24T01:06:40;100158.25;;;4.60;100.00
12349;BME280;5974;42.710;27.258;2023-04-24T01:09:09;100165.22;;;4.58;100.00
12349;BME280;5974;42.710;27.258;2023-04-24T01:11:38;100158.31;;;4.56;100.00
12349;BME280;5974;42.710;27.258;2023-04-24T01:14:07;100154.56;;;4.20;100.00
12349;BME280;5974;42.710;27.258;2023-04-24T01:16:35;100145.69;;;3.75;100.00
12349;BME280;5974;42.710;27.258;2023-04-24T01:19:04;100147.94;;;3.31;100.00
12349;BME280;5974;42.710;27.258;2023-04-24T01:21:34;100161.94;;;3.10;100.00
12349;BME280;5974;42.710;27.258;2023-04-24T01:24:04;100163.84;;;3.70;100.00
12349;BME280;5974;42.710;27.258;2023-04-24T01:26:31;100162.00;;;3.80;100.00
12349;BME280;5974;42.710;27.258;2023-04-24T01:28:58;100165.25;;;3.94;100.00
12349;BME280;5974;42.710;27.258;2023-04-24T01:31:25;100170.38;;;3.99;100.00
12349;BME280;5974;42.710;27.258;2023-04-24T01:33:53;100157.31;;;4.08;100.00
12349;BME280;5974;42.710;27.258;2023-04-24T01:36:21;100162.31;;;4.18;100.00
12349;BME280;5974;42.710;27.258;2023-04-24T01:38:48;100156.22;;;4.24;100.00
12349;BME280;5974;42.710;27.258;2023-04-24T01:41:16;100160.22;;;3.10;100.00
12349;BME280;5974;42.710;27.258;2023-04-24T01:43:43;100164.78;;;2.80;100.00
12349;BME280;5974;42.710;27.258;2023-04-24T01:46:10;100156.13;;;2.85;100.00
12349;BME280;5974;42.710;27.258;2023-04-24T01:48:37;100152.44;;;3.12;100.00
12349;BME280;5974;42.710;27.258;2023-04-24T01:51:04;100150.38;;;3.44;100.00
12349;BME280;5974;42.710;27.258;2023-04-24T01:53:31;100151.09;;;3.57;100.00
12349;BME280;5974;42.710;27.258;2023-04-24T01:55:58;100144.94;;;3.64;100.00
12349;BME280;5974;42.710;27.258;2023-04-24T01:58:26;100145.81;;;3.66;100.00
12349;BME280;5974;42.710;27.258;2023-04-24T02:00:56;100148.13;;;3.12;100.00
12349;BME280;5974;42.710;27.258;2023-04-24T02:03:24;100142.88;;;3.17;100.00
12349;BME280;5974;42.710;27.258;2023-04-24T02:05:52;100146.63;;;2.89;100.00
12349;BME280;5974;42.710;27.258;2023-04-24T02:08:18;100137.06;;;3.01;100.00
12349;BME280;5974;42.710;27.258;2023-04-24T02:10:45;100144.34;;;3.44;100.00
12349;BME280;5974;42.710;27.258;2023-04-24T02:13:12;100144.09;;;3.63;100.00
12349;BME280;5974;42.710;27.258;2023-04-24T02:15:40;100142.28;;;3.70;100.00
12349;BME280;5974;42.710;27.258;2023-04-24T02:18:07;100137.88;;;3.79;100.00
12349;BME280;5974;42.710;27.258;2023-04-24T02:20:34;100136.91;;;3.85;100.00
12349;BME280;5974;42.710;27.258;2023-04-24T02:23:01;100133.56;;;3.78;100.00
12349;BME280;5974;42.710;27.258;2023-04-24T02:25:28;100128.34;;;3.83;100.00
12349;BME280;5974;42.710;27.258;2023-04-24T02:27:54;100128.25;;;3.89;100.00
12349;BME280;5974;42.710;27.258;2023-04-24T02:30:21;100129.03;;;3.94;100.00
12349;BME280;5974;42.710;27.258;2023-04-24T02:32:50;100137.69;;;3.92;100.00
12349;BME280;5974;42.710;27.258;2023-04-24T02:35:17;100124.81;;;3.90;100.00
12349;BME280;5974;42.710;27.258;2023-04-24T02:37:43;100134.28;;;3.90;100.00
12349;BME280;5974;42.710;27.258;2023-04-24T02:40:11;100099.03;;;3.84;100.00
12349;BME280;5974;42.710;27.258;2023-04-24T02:42:38;100132.28;;;4.10;100.00
12349;BME280;5974;42.710;27.258;2023-04-24T02:45:05;100133.84;;;4.20;100.00
12349;BME280;5974;42.710;27.258;2023-04-24T02:47:32;100139.13;;;4.14;100.00
12349;BME280;5974;42.710;27.258;2023-04-24T02:50:01;100130.31;;;4.25;100.00
12349;BME280;5974;42.710;27.258;2023-04-24T02:52:28;100130.59;;;4.09;100.00
12349;BME280;5974;42.710;27.258;2023-04-24T02:54:55;100126.31;;;4.05;100.00
12349;BME280;5974;42.710;27.258;2023-04-24T02:57:22;100124.44;;;4.16;100.00
12349;BME280;5974;42.710;27.258;2023-04-24T02:59:48;100137.19;;;4.28;100.00
12349;BME280;5974;42.710;27.258;2023-04-24T03:02:15;100127.91;;;4.13;100.00
12349;BME280;5974;42.710;27.258;2023-04-24T03:04:42;100127.19;;;4.04;100.00
12349;BME280;5974;42.710;27.258;2023-04-24T03:07:11;100135.66;;;4.15;100.00
12349;BME280;5974;42.710;27.258;2023-04-24T03:09:39;100133.00;;;4.21;100.00
12349;BME280;5974;42.710;27.258;2023-04-24T03:12:06;100139.72;;;4.32;100.00
12349;BME280;5974;42.710;27.258;2023-04-24T03:14:33;100134.06;;;4.05;100.00
12349;BME280;5974;42.710;27.258;2023-04-24T03:17:00;100128.22;;;3.94;100.00
12349;BME280;5974;42.710;27.258;2023-04-24T03:19:27;100123.75;;;4.03;100.00
12349;BME280;5974;42.710;27.258;2023-04-24T03:21:53;100117.78;;;3.98;100.00
12349;BME280;5974;42.710;27.258;2023-04-24T03:24:22;100124.00;;;3.87;100.00
12349;BME280;5974;42.710;27.258;2023-04-24T03:26:48;100118.53;;;4.08;100.00
12349;BME280;5974;42.710;27.258;2023-04-24T03:29:15;100123.50;;;4.21;100.00
12349;BME280;5974;42.710;27.258;2023-04-24T03:31:42;100124.28;;;4.25;100.00
12349;BME280;5974;42.710;27.258;2023-04-24T03:34:09;100126.38;;;4.02;100.00
12349;BME280;5974;42.710;27.258;2023-04-24T03:36:36;100131.59;;;3.27;100.00
12349;BME280;5974;42.710;27.258;2023-04-24T03:39:03;100134.88;;;3.43;100.00
12349;BME280;5974;42.710;27.258;2023-04-24T03:41:32;100139.38;;;3.96;100.00
12349;BME280;5974;42.710;27.258;2023-04-24T03:43:59;100144.19;;;4.21;100.00
12349;BME280;5974;42.710;27.258;2023-04-24T03:46:25;100137.72;;;4.50;100.00
12349;BME280;5974;42.710;27.258;2023-04-24T03:48:52;100166.03;;;4.60;100.00
12349;BME280;5974;42.710;27.258;2023-04-24T03:51:19;100135.06;;;4.53;100.00
12349;BME280;5974;42.710;27.258;2023-04-24T03:53:46;100129.38;;;4.84;100.00
12349;BME280;5974;42.710;27.258;2023-04-24T03:56:13;100136.75;;;5.07;100.00
12349;BME280;5974;42.710;27.258;2023-04-24T03:58:41;100131.25;;;5.24;100.00
12349;BME280;5974;42.710;27.258;2023-04-24T04:01:09;100133.59;;;5.36;100.00
12349;BME280;5974;42.710;27.258;2023-04-24T04:03:35;100130.69;;;5.53;100.00
12349;BME280;5974;42.710;27.258;2023-04-24T04:06:03;100133.16;;;5.59;100.00
12349;BME280;5974;42.710;27.258;2023-04-24T04:08:29;100137.03;;;5.81;100.00
12349;BME280;5974;42.710;27.258;2023-04-24T04:10:56;100131.09;;;6.16;100.00
12349;BME280;5974;42.710;27.258;2023-04-24T04:13:23;100138.50;;;6.32;100.00
12349;BME280;5974;42.710;27.258;2023-04-24T04:15:51;100132.72;;;6.58;100.00
12349;BME280;5974;42.710;27.258;2023-04-24T04:18:18;100135.13;;;6.99;100.00
12349;BME280;5974;42.710;27.258;2023-04-24T04:20:45;100119.56;;;7.30;100.00
12349;BME280;5974;42.710;27.258;2023-04-24T04:23:12;100123.13;;;8.45;100.00
12349;BME280;5974;42.710;27.258;2023-04-24T04:25:39;100104.09;;;9.43;100.00
12349;BME280;5974;42.710;27.258;2023-04-24T04:28:05;100091.22;;;10.07;100.00
12349;BME280;5974;42.710;27.258;2023-04-24T04:30:32;100082.47;;;11.72;100.00
12349;BME280;5974;42.710;27.258;2023-04-24T04:33:01;100068.53;;;13.14;100.00
12349;BME280;5974;42.710;27.258;2023-04-24T04:35:27;100059.47;;;14.61;100.00
12349;BME280;5974;42.710;27.258;2023-04-24T04:37:54;100072.66;;;14.46;100.00
12349;BME280;5974;42.710;27.258;2023-04-24T04:40:24;100065.31;;;16.09;100.00
12349;BME280;5974;42.710;27.258;2023-04-24T04:42:52;100066.78;;;16.94;84.47
12349;BME280;5974;42.710;27.258;2023-04-24T04:45:19;100059.41;;;17.24;80.42
12349;BME280;5974;42.710;27.258;2023-04-24T04:47:46;100054.44;;;17.19;81.74
12349;BME280;5974;42.710;27.258;2023-04-24T04:50:14;100059.00;;;18.28;78.74
12349;BME280;5974;42.710;27.258;2023-04-24T04:52:42;100057.41;;;21.55;68.25
12349;BME280;5974;42.710;27.258;2023-04-24T04:55:09;100055.38;;;23.23;58.85
12349;BME280;5974;42.710;27.258;2023-04-24T04:57:36;100057.59;;;21.43;58.82
12349;BME280;5974;42.710;27.258;2023-04-24T05:00:04;100061.84;;;21.25;59.91
12349;BME280;5974;42.710;27.258;2023-04-24T05:02:32;100060.31;;;20.38;60.39
12349;BME280;5974;42.710;27.258;2023-04-24T05:04:59;100061.91;;;20.61;60.63
12349;BME280;5974;42.710;27.258;2023-04-24T05:07:27;100032.47;;;20.85;60.24
12349;BME280;5974;42.710;27.258;2023-04-24T05:09:54;100063.41;;;21.27;59.67
12349;BME280;5974;42.710;27.258;2023-04-24T05:12:21;100057.53;;;22.53;57.02
12349;BME280;5974;42.710;27.258;2023-04-24T05:14:48;100045.63;;;21.88;56.98
12349;BME280;5974;42.710;27.258;2023-04-24T05:17:15;100059.16;;;21.45;57.96
12349;BME280;5974;42.710;27.258;2023-04-24T05:19:42;100065.41;;;20.30;59.28
12349;BME280;5974;42.710;27.258;2023-04-24T05:22:09;100040.56;;;21.25;58.80
12349;BME280;5974;42.710;27.258;2023-04-24T05:24:38;100053.41;;;22.10;56.23
12349;BME280;5974;42.710;27.258;2023-04-24T05:27:05;100056.09;;;22.20;55.24
12349;BME280;5974;42.710;27.258;2023-04-24T05:29:32;100051.91;;;24.59;51.08
12349;BME280;5974;42.710;27.258;2023-04-24T05:32:00;100053.56;;;25.65;48.50
12349;BME280;5974;42.710;27.258;2023-04-24T05:34:27;100059.03;;;25.55;47.37
12349;BME280;5974;42.710;27.258;2023-04-24T05:36:53;100050.41;;;26.85;45.72
12349;BME280;5974;42.710;27.258;2023-04-24T05:39:20;100045.38;;;27.07;43.92
12349;BME280;5974;42.710;27.258;2023-04-24T05:41:48;100046.88;;;25.69;45.01
12349;BME280;5974;42.710;27.258;2023-04-24T05:44:15;100043.72;;;24.96;47.80
12349;BME280;5974;42.710;27.258;2023-04-24T05:46:42;100053.03;;;26.03;46.09
12349;BME280;5974;42.710;27.258;2023-04-24T05:49:09;100046.69;;;26.04;46.23
12349;BME280;5974;42.710;27.258;2023-04-24T05:51:36;100042.16;;;26.79;45.83
12349;BME280;5974;42.710;27.258;2023-04-24T05:54:04;100040.81;;;26.83;44.87
12349;BME280;5974;42.710;27.258;2023-04-24T05:56:31;100050.16;;;25.97;45.96
12349;BME280;5974;42.710;27.258;2023-04-24T05:59:00;100039.97;;;26.00;47.14
12349;BME280;5974;42.710;27.258;2023-04-24T06:01:26;100038.41;;;26.23;45.24
12349;BME280;5974;42.710;27.258;2023-04-24T06:03:53;100044.81;;;26.63;45.73
12349;BME280;5974;42.710;27.258;2023-04-24T06:06:20;100044.00;;;26.78;45.56
12349;BME280;5974;42.710;27.258;2023-04-24T06:08:47;100042.78;;;28.54;42.79
12349;BME280;5974;42.710;27.258;2023-04-24T06:11:14;100046.56;;;26.88;44.42
12349;BME280;5974;42.710;27.258;2023-04-24T06:13:41;100045.94;;;27.57;43.72
12349;BME280;5974;42.710;27.258;2023-04-24T06:16:09;100047.19;;;27.14;44.28
12349;BME280;5974;42.710;27.258;2023-04-24T06:18:36;100041.81;;;27.85;42.06
12349;BME280;5974;42.710;27.258;2023-04-24T06:21:03;100040.69;;;28.02;43.31
12349;BME280;5974;42.710;27.258;2023-04-24T06:23:30;100048.13;;;25.49;45.70
12349;BME280;5974;42.710;27.258;2023-04-24T06:25:58;100042.06;;;27.60;43.95
12349;BME280;5974;42.710;27.258;2023-04-24T06:28:25;100055.56;;;27.11;43.62
12349;BME280;5974;42.710;27.258;2023-04-24T06:30:52;100057.09;;;26.07;44.97
12349;BME280;5974;42.710;27.258;2023-04-24T06:33:22;100053.75;;;26.05;47.10
12349;BME280;5974;42.710;27.258;2023-04-24T06:35:49;100052.75;;;26.80;44.74
12349;BME280;5974;42.710;27.258;2023-04-24T06:38:16;100054.84;;;25.86;47.23
12349;BME280;5974;42.710;27.258;2023-04-24T06:40:43;100047.47;;;24.86;47.25
12349;BME280;5974;42.710;27.258;2023-04-24T06:43:10;100044.75;;;25.47;48.51
12349;BME280;5974;42.710;27.258;2023-04-24T06:45:38;100050.72;;;27.15;46.20
12349;BME280;5974;42.710;27.258;2023-04-24T06:48:05;100029.06;;;24.30;47.23
12349;BME280;5974;42.710;27.258;2023-04-24T06:50:33;100052.88;;;26.55;45.81
12349;BME280;5974;42.710;27.258;2023-04-24T06:53:00;100056.69;;;26.52;45.29
12349;BME280;5974;42.710;27.258;2023-04-24T06:55:27;100048.19;;;26.73;44.89
12349;BME280;5974;42.710;27.258;2023-04-24T06:57:54;100048.28;;;26.31;42.41
12349;BME280;5974;42.710;27.258;2023-04-24T07:00:21;100050.84;;;25.57;44.54
12349;BME280;5974;42.710;27.258;2023-04-24T07:02:49;100046.31;;;26.49;43.87
12349;BME280;5974;42.710;27.258;2023-04-24T07:05:16;100057.09;;;29.37;42.10
12349;BME280;5974;42.710;27.258;2023-04-24T07:07:48;100046.97;;;27.40;42.42
12349;BME280;5974;42.710;27.258;2023-04-24T07:10:16;100050.09;;;28.91;39.57
12349;BME280;5974;42.710;27.258;2023-04-24T07:12:43;100051.31;;;28.88;39.01
12349;BME280;5974;42.710;27.258;2023-04-24T07:15:10;100056.44;;;27.04;41.01
12349;BME280;5974;42.710;27.258;2023-04-24T07:17:37;100056.25;;;28.54;41.10
12349;BME280;5974;42.710;27.258;2023-04-24T07:20:09;100051.50;;;29.53;36.76
12349;BME280;5974;42.710;27.258;2023-04-24T07:22:37;100051.81;;;29.07;37.43
12349;BME280;5974;42.710;27.258;2023-04-24T07:25:06;100060.41;;;30.13;36.07
12349;BME280;5974;42.710;27.258;2023-04-24T07:27:34;100053.25;;;28.49;36.47
12349;BME280;5974;42.710;27.258;2023-04-24T07:30:01;100049.47;;;28.05;38.39
12349;BME280;5974;42.710;27.258;2023-04-24T07:32:28;100044.47;;;29.00;37.97
12349;BME280;5974;42.710;27.258;2023-04-24T07:34:55;100052.00;;;31.49;36.99
12349;BME280;5974;42.710;27.258;2023-04-24T07:37:22;100047.06;;;29.09;39.50
12349;BME280;5974;42.710;27.258;2023-04-24T07:39:49;100044.00;;;29.93;38.96
12349;BME280;5974;42.710;27.258;2023-04-24T07:42:18;100047.59;;;29.41;40.24
12349;BME280;5974;42.710;27.258;2023-04-24T07:44:44;100045.47;;;27.29;39.02
12349;BME280;5974;42.710;27.258;2023-04-24T07:47:13;100050.22;;;26.05;42.21
12349;BME280;5974;42.710;27.258;2023-04-24T07:49:41;100044.97;;;27.26;41.90
12349;BME280;5974;42.710;27.258;2023-04-24T07:52:08;100043.31;;;25.60;41.01
12349;BME280;5974;42.710;27.258;2023-04-24T07:54:35;100039.56;;;22.93;44.17
12349;BME280;5974;42.710;27.258;2023-04-24T07:57:02;100048.13;;;21.50;47.64
12349;BME280;5974;42.710;27.258;2023-04-24T07:59:30;100047.66;;;21.45;49.82
12349;BME280;5974;42.710;27.258;2023-04-24T08:01:57;100042.06;;;20.76;51.38
12349;BME280;5974;42.710;27.258;2023-04-24T08:04:24;100043.44;;;20.17;54.34
12349;BME280;5974;42.710;27.258;2023-04-24T08:06:51;100043.94;;;20.11;55.34
12349;BME280;5974;42.710;27.258;2023-04-24T08:09:18;100050.78;;;20.35;58.20
12349;BME280;5974;42.710;27.258;2023-04-24T08:11:45;100044.78;;;20.11;57.68
12349;BME280;5974;42.710;27.258;2023-04-24T08:14:11;100045.53;;;20.02;57.25
12349;BME280;5974;42.710;27.258;2023-04-24T08:16:41;100044.59;;;19.81;56.39
12349;BME280;5974;42.710;27.258;2023-04-24T08:19:08;100048.16;;;20.13;59.40
12349;BME280;5974;42.710;27.258;2023-04-24T08:21:35;100040.28;;;19.58;57.74
12349;BME280;5974;42.710;27.258;2023-04-24T08:24:02;100046.84;;;20.08;60.86
12349;BME280;5974;42.710;27.258;2023-04-24T08:26:33;100038.28;;;20.04;59.94
12349;BME280;5974;42.710;27.258;2023-04-24T08:29:00;100044.50;;;19.71;59.63
12349;BME280;5974;42.710;27.258;2023-04-24T08:31:27;100036.53;;;19.71;59.01
12349;BME280;5974;42.710;27.258;2023-04-24T08:33:55;100035.94;;;19.45;60.09
12349;BME280;5974;42.710;27.258;2023-04-24T08:36:22;100032.78;;;18.83;58.55
12349;BME280;5974;42.710;27.258;2023-04-24T08:38:49;100031.66;;;19.21;60.67
12349;BME280;5974;42.710;27.258;2023-04-24T08:41:17;100018.81;;;19.61;59.44
12349;BME280;5974;42.710;27.258;2023-04-24T08:43:45;100027.13;;;19.45;58.93
12349;BME280;5974;42.710;27.258;2023-04-24T08:46:13;100020.34;;;19.30;59.35
12349;BME280;5974;42.710;27.258;2023-04-24T08:48:42;100024.75;;;20.07;59.29
12349;BME280;5974;42.710;27.258;2023-04-24T08:51:10;100015.13;;;19.95;59.00
12349;BME280;5974;42.710;27.258;2023-04-24T08:53:37;100017.34;;;20.22;58.23
12349;BME280;5974;42.710;27.258;2023-04-24T08:56:05;100008.28;;;19.92;58.96
12349;BME280;5974;42.710;27.258;2023-04-24T08:58:32;100007.97;;;19.41;57.86
12349;BME280;5974;42.710;27.258;2023-04-24T09:01:00;100009.00;;;19.72;58.99
12349;BME280;5974;42.710;27.258;2023-04-24T09:03:28;100001.81;;;19.74;60.63
12349;BME280;5974;42.710;27.258;2023-04-24T09:05:55;100000.31;;;19.92;58.34
12349;BME280;5974;42.710;27.258;2023-04-24T09:08:25;99970.13;;;20.05;57.32
12349;BME280;5974;42.710;27.258;2023-04-24T09:10:52;100002.53;;;20.19;55.45
12349;BME280;5974;42.710;27.258;2023-04-24T09:13:20;99997.34;;;19.19;58.29
12349;BME280;5974;42.710;27.258;2023-04-24T09:15:47;99994.00;;;20.47;59.37
12349;BME280;5974;42.710;27.258;2023-04-24T09:18:14;99989.31;;;21.02;57.48
12349;BME280;5974;42.710;27.258;2023-04-24T09:21:00;99994.25;;;19.90;54.81
12349;BME280;5974;42.710;27.258;2023-04-24T09:23:30;99993.06;;;20.06;55.53
12349;BME280;5974;42.710;27.258;2023-04-24T09:25:59;99990.81;;;20.33;56.89
12349;BME280;5974;42.710;27.258;2023-04-24T09:28:31;99982.47;;;20.79;56.04
12349;BME280;5974;42.710;27.258;2023-04-24T09:31:03;99978.72;;;20.81;57.11
12349;BME280;5974;42.710;27.258;2023-04-24T09:33:30;99974.31;;;20.07;53.64
12349;BME280;5974;42.710;27.258;2023-04-24T09:35:57;99975.50;;;20.46;53.42
12349;BME280;5974;42.710;27.258;2023-04-24T09:38:36;99981.44;;;20.91;54.54
12349;BME280;5974;42.710;27.258;2023-04-24T09:41:05;99970.09;;;21.40;54.37
12349;BME280;5974;42.710;27.258;2023-04-24T09:43:32;99971.00;;;20.78;53.21
12349;BME280;5974;42.710;27.258;2023-04-24T09:46:04;99973.19;;;20.21;53.43
12349;BME280;5974;42.710;27.258;2023-04-24T09:48:32;99962.16;;;20.05;54.45
12349;BME280;5974;42.710;27.258;2023-04-24T09:51:00;99965.00;;;19.70;53.85
12349;BME280;5974;42.710;27.258;2023-04-24T09:53:29;99964.50;;;20.50;56.08
12349;BME280;5974;42.710;27.258;2023-04-24T09:56:02;99953.56;;;20.65;53.84
12349;BME280;5974;42.710;27.258;2023-04-24T09:58:29;99961.81;;;20.82;54.99
12349;BME280;5974;42.710;27.258;2023-04-24T10:00:56;99956.03;;;20.57;52.84
12349;BME280;5974;42.710;27.258;2023-04-24T10:03:25;99953.56;;;20.44;54.60
12349;BME280;5974;42.710;27.258;2023-04-24T10:05:58;99945.16;;;21.11;52.92
12349;BME280;5974;42.710;27.258;2023-04-24T10:08:25;99950.81;;;21.67;55.29
12349;BME280;5974;42.710;27.258;2023-04-24T10:10:52;99939.50;;;21.65;53.94
12349;BME280;5974;42.710;27.258;2023-04-24T10:13:21;99945.50;;;20.96;52.74
12349;BME280;5974;42.710;27.258;2023-04-24T10:15:48;99937.09;;;20.91;54.60
12349;BME280;5974;42.710;27.258;2023-04-24T10:18:15;99930.44;;;20.35;54.39
12349;BME280;5974;42.710;27.258;2023-04-24T10:20:42;99940.00;;;20.88;55.63
12349;BME280;5974;42.710;27.258;2023-04-24T10:23:09;99939.75;;;20.50;57.55
12349;BME280;5974;42.710;27.258;2023-04-24T10:25:37;99941.72;;;20.48;56.44
12349;BME280;5974;42.710;27.258;2023-04-24T10:28:04;99936.28;;;21.00;58.23
12349;BME280;5974;42.710;27.258;2023-04-24T10:30:34;99939.31;;;20.66;55.88
12349;BME280;5974;42.710;27.258;2023-04-24T10:33:02;99922.00;;;20.30;56.47
12349;BME280;5974;42.710;27.258;2023-04-24T10:35:31;99931.34;;;21.17;58.90
12349;BME280;5974;42.710;27.258;2023-04-24T10:38:02;99935.31;;;21.01;57.09
12349;BME280;5974;42.710;27.258;2023-04-24T10:40:31;99918.28;;;21.34;59.51
12349;BME280;5974;42.710;27.258;2023-04-24T10:42:59;99922.66;;;21.15;56.52
12349;BME280;5974;42.710;27.258;2023-04-24T10:45:26;99925.50;;;21.02;57.90
12349;BME280;5974;42.710;27.258;2023-04-24T10:47:56;99922.88;;;20.51;57.51
12349;BME280;5974;42.710;27.258;2023-04-24T10:50:26;99917.09;;;19.82;60.35
12349;BME280;5974;42.710;27.258;2023-04-24T10:52:53;99905.28;;;19.86;61.59
12349;BME280;5974;42.710;27.258;2023-04-24T10:55:42;99911.66;;;20.16;62.26
12349;BME280;5974;42.710;27.258;2023-04-24T10:58:10;99916.09;;;20.68;61.06
12349;BME280;5974;42.710;27.258;2023-04-24T11:00:37;99913.34;;;20.17;59.74
12349;BME280;5974;42.710;27.258;2023-04-24T11:03:22;99911.31;;;20.62;59.08
12349;BME280;5974;42.710;27.258;2023-04-24T11:05:52;99910.59;;;20.60;58.53
12349;BME280;5974;42.710;27.258;2023-04-24T11:08:28;99909.66;;;20.08;60.82
12349;BME280;5974;42.710;27.258;2023-04-24T11:10:58;99914.28;;;19.52;60.37
12349;BME280;5974;42.710;27.258;2023-04-24T11:13:27;99911.53;;;19.31;61.65
12349;BME280;5974;42.710;27.258;2023-04-24T11:16:13;99913.31;;;19.20;60.59
12349;BME280;5974;42.710;27.258;2023-04-24T11:18:43;99907.31;;;19.18;60.95
12349;BME280;5974;42.710;27.258;2023-04-24T11:21:17;99908.13;;;18.74;61.29
12349;BME280;5974;42.710;27.258;2023-04-24T11:23:44;99911.88;;;18.71;62.35
12349;BME280;5974;42.710;27.258;2023-04-24T11:26:12;99905.13;;;18.56;61.23
12349;BME280;5974;42.710;27.258;2023-04-24T11:28:50;99902.66;;;18.42;60.97
12349;BME280;5974;42.710;27.258;2023-04-24T11:31:40;99897.00;;;18.47;60.15
12349;BME280;5974;42.710;27.258;2023-04-24T11:34:11;99900.44;;;18.60;60.63
12349;BME280;5974;42.710;27.258;2023-04-24T11:36:38;99895.41;;;18.79;60.49
12349;BME280;5974;42.710;27.258;2023-04-24T11:39:05;99888.97;;;19.26;60.69
12349;BME280;5974;42.710;27.258;2023-04-24T11:41:33;99881.69;;;19.07;59.52
12349;BME280;5974;42.710;27.258;2023-04-24T11:44:01;99880.09;;;19.05;58.63
12349;BME280;5974;42.710;27.258;2023-04-24T11:46:30;99869.63;;;19.03;57.70
12349;BME280;5974;42.710;27.258;2023-04-24T11:48:57;99880.97;;;19.70;58.60
12349;BME280;5974;42.710;27.258;2023-04-24T11:51:27;99871.88;;;19.84;56.47
12349;BME280;5974;42.710;27.258;2023-04-24T11:53:54;99872.25;;;19.25;57.06
12349;BME280;5974;42.710;27.258;2023-04-24T11:56:22;99830.94;;;19.12;56.63
12349;BME280;5974;42.710;27.258;2023-04-24T11:58:52;99869.41;;;19.60;56.88
12349;BME280;5974;42.710;27.258;2023-04-24T12:01:19;99874.50;;;19.52;56.09
12349;BME280;5974;42.710;27.258;2023-04-24T12:03:48;99871.88;;;19.08;56.69
12349;BME280;5974;42.710;27.258;2023-04-24T12:06:16;99863.94;;;19.08;57.90
12349;BME280;5974;42.710;27.258;2023-04-24T12:08:47;99864.44;;;19.02;56.18
12349;BME280;5974;42.710;27.258;2023-04-24T12:11:16;99861.28;;;19.08;56.36
12349;BME280;5974;42.710;27.258;2023-04-24T12:13:44;99860.09;;;18.67;56.95
12349;BME280;5974;42.710;27.258;2023-04-24T12:16:12;99856.97;;;18.62;57.60
12349;BME280;5974;42.710;27.258;2023-04-24T12:18:43;99858.88;;;19.05;56.78
12349;BME280;5974;42.710;27.258;2023-04-24T12:21:20;99833.38;;;18.59;57.60
12349;BME280;5974;42.710;27.258;2023-04-24T12:23:49;99858.53;;;18.54;57.18
12349;BME280;5974;42.710;27.258;2023-04-24T12:26:18;99848.34;;;18.25;57.91
12349;BME280;5974;42.710;27.258;2023-04-24T12:28:47;99843.84;;;18.50;57.36
12349;BME280;5974;42.710;27.258;2023-04-24T12:31:15;99856.81;;;18.41;57.03
12349;BME280;5974;42.710;27.258;2023-04-24T12:33:42;99841.47;;;18.23;57.87
12349;BME280;5974;42.710;27.258;2023-04-24T12:36:10;99850.91;;;18.03;57.72
12349;BME280;5974;42.710;27.258;2023-04-24T12:38:39;99836.59;;;17.95;58.20
12349;BME280;5974;42.710;27.258;2023-04-24T12:41:12;99839.41;;;18.15;57.88
12349;BME280;5974;42.710;27.258;2023-04-24T12:43:50;99835.91;;;18.50;57.35
12349;BME280;5974;42.710;27.258;2023-04-24T12:46:18;99834.47;;;18.57;56.01
12349;BME280;5974;42.710;27.258;2023-04-24T12:48:45;99832.13;;;18.41;55.24
12349;BME280;5974;42.710;27.258;2023-04-24T12:51:11;99828.44;;;18.88;52.44
12349;BME280;5974;42.710;27.258;2023-04-24T12:53:38;99824.00;;;18.09;52.49
12349;BME280;5974;42.710;27.258;2023-04-24T12:56:05;99832.13;;;17.84;53.16